createdAt,value
2023-05-25T00:02:08.720Z,3.23
2023-05-25T00:04:37.113Z,2.63
2023-05-25T00:07:05.725Z,2.60
2023-05-25T00:09:35.272Z,2.87
2023-05-25T00:12:03.476Z,3.03
2023-05-25T00:14:32.007Z,3.07
2023-05-25T00:17:04.033Z,3.30
2023-05-25T00:19:33.935Z,3.37
2023-05-25T00:22:03.059Z,3.60
2023-05-25T00:24:31.806Z,3.60
2023-05-25T00:27:02.329Z,4.07
2023-05-25T00:29:30.576Z,4.40
2023-05-25T00:31:58.775Z,4.60
2023-05-25T00:34:27.010Z,4.47
2023-05-25T00:36:55.493Z,4.03
2023-05-25T00:39:23.870Z,4.23
2023-05-25T00:41:52.164Z,5.00
2023-05-25T00:44:22.155Z,5.07
2023-05-25T00:46:51.912Z,5.70
2023-05-25T00:49:21.368Z,5.00
2023-05-25T00:51:49.808Z,4.63
2023-05-25T00:54:18.250Z,4.87
2023-05-25T00:56:48.091Z,5.20
2023-05-25T00:59:18.755Z,5.07
2023-05-25T01:01:48.961Z,4.97
2023-05-25T01:04:17.943Z,4.70
2023-05-25T01:06:48.277Z,5.27
2023-05-25T01:09:18.494Z,4.40
2023-05-25T01:11:50.416Z,4.87
2023-05-25T01:14:20.507Z,5.20
2023-05-25T01:16:51.774Z,4.73
2023-05-25T01:19:20.122Z,4.70
2023-05-25T01:21:56.317Z,5.23
2023-05-25T01:24:27.602Z,5.27
2023-05-25T01:26:57.629Z,5.30
2023-05-25T01:29:26.859Z,5.33
2023-05-25T01:31:55.505Z,5.00
2023-05-25T01:34:24.462Z,4.87
2023-05-25T01:36:54.055Z,4.90
2023-05-25T01:39:23.141Z,5.00
2023-05-25T01:41:51.425Z,4.97
2023-05-25T01:44:20.901Z,5.27
2023-05-25T01:46:51.930Z,4.97
2023-05-25T01:49:23.266Z,5.27
2023-05-25T01:51:55.788Z,5.60
2023-05-25T01:54:28.187Z,4.77
2023-05-25T01:56:57.261Z,5.20
2023-05-25T01:59:26.186Z,5.07
2023-05-25T02:01:54.848Z,5.20
2023-05-25T02:04:23.485Z,4.53
2023-05-25T02:06:54.370Z,4.80
2023-05-25T02:09:22.636Z,5.00
2023-05-25T02:11:50.822Z,5.27
2023-05-25T02:14:19.149Z,4.90
2023-05-25T02:16:47.409Z,4.70
2023-05-25T02:19:15.998Z,4.73
2023-05-25T02:21:44.170Z,4.80
2023-05-25T02:24:13.826Z,4.40
2023-05-25T02:26:42.080Z,4.40
2023-05-25T02:29:11.616Z,5.03
2023-05-25T02:31:39.953Z,4.80
2023-05-25T02:34:08.245Z,4.83
2023-05-25T02:36:36.471Z,4.67
2023-05-25T02:39:05.007Z,5.00
2023-05-25T02:41:34.516Z,5.07
2023-05-25T02:44:02.785Z,4.90
2023-05-25T02:46:31.092Z,5.33
2023-05-25T02:48:59.950Z,5.40
2023-05-25T02:51:28.207Z,5.10
2023-05-25T02:53:56.580Z,5.13
2023-05-25T02:56:24.820Z,5.30
2023-05-25T02:58:54.416Z,5.00
2023-05-25T03:01:22.752Z,5.10
2023-05-25T03:03:52.574Z,5.53
2023-05-25T03:06:21.463Z,5.10
2023-05-25T03:08:49.688Z,5.20
2023-05-25T03:11:17.912Z,5.70
2023-05-25T03:13:46.144Z,5.37
2023-05-25T03:16:15.663Z,5.57
2023-05-25T03:18:43.914Z,6.03
2023-05-25T03:21:12.103Z,5.70
2023-05-25T03:23:40.295Z,5.77
2023-05-25T03:26:08.536Z,6.47
2023-05-25T03:28:36.721Z,6.10
2023-05-25T03:31:05.160Z,6.17
2023-05-25T03:33:34.811Z,6.13
2023-05-25T03:36:03.013Z,6.17
2023-05-25T03:38:31.218Z,6.47
2023-05-25T03:40:59.842Z,5.77
2023-05-25T03:43:28.027Z,6.87
2023-05-25T03:45:56.294Z,6.10
2023-05-25T03:48:24.555Z,5.90
2023-05-25T03:50:54.161Z,6.30
2023-05-25T03:53:22.376Z,6.47
2023-05-25T03:55:52.005Z,6.80
2023-05-25T03:58:20.281Z,6.63
2023-05-25T04:00:50.307Z,6.53
2023-05-25T04:03:18.652Z,6.17
2023-05-25T04:05:47.234Z,6.47
2023-05-25T04:08:18.003Z,6.60
2023-05-25T04:10:46.802Z,7.73
2023-05-25T04:13:15.542Z,6.50
2023-05-25T04:15:43.975Z,7.37
2023-05-25T04:18:12.421Z,6.70
2023-05-25T04:20:40.823Z,7.13
2023-05-25T04:23:09.071Z,6.40
2023-05-25T04:25:38.691Z,7.30
2023-05-25T04:28:08.349Z,7.60
2023-05-25T04:30:36.625Z,6.90
2023-05-25T04:33:05.188Z,7.60
2023-05-25T04:35:33.394Z,6.67
2023-05-25T04:38:03.097Z,6.67
2023-05-25T04:40:33.086Z,6.93
2023-05-25T04:43:03.468Z,7.10
2023-05-25T04:45:33.208Z,6.50
2023-05-25T04:48:03.000Z,7.13
2023-05-25T04:50:31.199Z,6.40
2023-05-25T04:52:59.425Z,7.10
2023-05-25T04:55:27.647Z,7.00
2023-05-25T04:57:55.892Z,7.07
2023-05-25T05:00:25.413Z,6.83
2023-05-25T05:02:54.052Z,6.90
2023-05-25T05:05:22.447Z,6.97
2023-05-25T05:07:51.781Z,7.70
2023-05-25T05:10:19.998Z,7.40
2023-05-25T05:12:48.212Z,7.90
2023-05-25T05:15:16.432Z,7.13
2023-05-25T05:17:46.579Z,7.93
2023-05-25T05:20:15.195Z,7.60
2023-05-25T05:22:43.713Z,7.80
2023-05-25T05:25:12.075Z,8.40
2023-05-25T05:27:40.297Z,7.23
2023-05-25T05:30:09.066Z,8.17
2023-05-25T05:32:37.279Z,7.20
2023-05-25T05:35:07.589Z,7.03
2023-05-25T05:37:36.263Z,6.70
2023-05-25T05:40:05.503Z,6.47
2023-05-25T05:42:33.885Z,6.90
2023-05-25T05:45:02.166Z,7.23
2023-05-25T05:47:30.476Z,6.80
2023-05-25T05:49:58.800Z,6.93
2023-05-25T05:52:28.550Z,6.10
2023-05-25T05:54:56.866Z,5.43
2023-05-25T05:57:25.077Z,5.23
2023-05-25T05:59:53.302Z,5.20
2023-05-25T06:02:21.594Z,5.83
2023-05-25T06:04:49.827Z,6.03
2023-05-25T06:07:18.074Z,5.10
2023-05-25T06:09:47.594Z,5.03
2023-05-25T06:12:16.084Z,4.97
2023-05-25T06:14:44.294Z,5.20
2023-05-25T06:17:12.517Z,4.87
2023-05-25T06:19:41.042Z,4.97
2023-05-25T06:22:09.282Z,5.53
2023-05-25T06:24:37.434Z,5.17
2023-05-25T06:27:07.309Z,5.43
2023-05-25T06:29:35.867Z,5.03
2023-05-25T06:32:04.839Z,5.33
2023-05-25T06:34:33.095Z,5.77
2023-05-25T06:37:01.887Z,5.63
2023-05-25T06:39:30.105Z,5.80
2023-05-25T06:41:58.340Z,5.80
2023-05-25T06:44:27.854Z,5.33
2023-05-25T06:46:56.010Z,5.87
2023-05-25T06:49:24.226Z,5.10
2023-05-25T06:51:52.521Z,5.33
2023-05-25T06:54:20.716Z,4.53
2023-05-25T06:56:49.076Z,4.67
2023-05-25T06:59:18.371Z,5.00
2023-05-25T07:01:48.594Z,4.77
2023-05-25T07:04:16.849Z,4.83
2023-05-25T07:06:45.133Z,4.37
2023-05-25T07:09:13.631Z,4.33
2023-05-25T07:11:41.846Z,4.37
2023-05-25T07:14:10.090Z,4.40
2023-05-25T07:16:38.543Z,4.40
2023-05-25T07:19:08.221Z,5.03
2023-05-25T07:21:36.571Z,4.03
2023-05-25T07:24:04.893Z,4.37
2023-05-25T07:26:33.391Z,4.53
2023-05-25T07:29:01.866Z,4.50
2023-05-25T07:31:30.196Z,4.40
2023-05-25T07:33:58.471Z,4.30
2023-05-25T07:36:28.034Z,5.23
2023-05-25T07:38:56.324Z,4.50
2023-05-25T07:41:24.481Z,5.27
2023-05-25T07:43:52.812Z,5.37
2023-05-25T07:46:25.119Z,5.17
2023-05-25T07:48:54.699Z,4.80
2023-05-25T07:51:26.223Z,5.27
2023-05-25T07:53:57.148Z,5.80
2023-05-25T07:56:25.381Z,5.20
2023-05-25T07:58:53.612Z,4.97
2023-05-25T08:01:24.918Z,5.27
2023-05-25T08:03:54.563Z,5.57
2023-05-25T08:06:23.178Z,5.50
2023-05-25T08:08:51.956Z,4.83
2023-05-25T08:11:23.477Z,4.00
2023-05-25T08:13:52.163Z,4.40
2023-05-25T08:16:20.622Z,4.70
2023-05-25T08:18:48.897Z,4.53
2023-05-25T08:21:17.185Z,4.57
2023-05-25T08:23:45.946Z,4.83
2023-05-25T08:26:34.351Z,3.97
2023-05-25T08:29:04.264Z,4.33
2023-05-25T08:31:33.078Z,5.10
2023-05-25T08:34:01.514Z,4.80
2023-05-25T08:36:29.818Z,5.43
2023-05-25T08:38:58.023Z,5.13
2023-05-25T08:41:26.334Z,4.70
2023-05-25T08:43:54.579Z,4.53
2023-05-25T08:46:30.313Z,4.30
2023-05-25T08:49:02.026Z,4.43
2023-05-25T08:51:32.465Z,4.50
2023-05-25T08:54:03.871Z,3.80
2023-05-25T08:56:35.759Z,3.63
2023-05-25T08:59:17.656Z,4.90
2023-05-25T09:01:48.422Z,3.93
2023-05-25T09:04:19.647Z,3.77
2023-05-25T09:06:57.341Z,3.50
2023-05-25T09:09:37.017Z,3.40
2023-05-25T09:12:06.879Z,3.40
2023-05-25T09:14:35.613Z,3.20
2023-05-25T09:17:05.359Z,4.00
2023-05-25T09:19:33.590Z,3.30
2023-05-25T09:22:14.728Z,3.30
2023-05-25T09:24:45.174Z,3.37
2023-05-25T09:27:14.093Z,3.37
2023-05-25T09:29:42.726Z,3.47
2023-05-25T09:32:12.390Z,3.30
2023-05-25T09:34:40.632Z,3.23
2023-05-25T09:37:13.807Z,3.63
2023-05-25T09:39:42.663Z,3.40
2023-05-25T09:42:11.000Z,3.10
2023-05-25T09:44:39.446Z,3.20
2023-05-25T09:47:08.083Z,3.20
2023-05-25T09:49:38.504Z,3.13
2023-05-25T09:52:07.919Z,3.17
2023-05-25T09:54:36.095Z,2.83
2023-05-25T09:57:05.247Z,2.50
2023-05-25T09:59:33.749Z,3.40
2023-05-25T10:02:02.314Z,2.80
2023-05-25T10:04:30.789Z,2.73
2023-05-25T10:07:01.457Z,3.10
2023-05-25T10:09:30.691Z,3.30
2023-05-25T10:11:59.526Z,2.60
2023-05-25T10:14:29.529Z,3.07
2023-05-25T10:17:00.535Z,3.30
2023-05-25T10:19:32.871Z,2.83
2023-05-25T10:22:05.451Z,3.50
2023-05-25T10:24:36.706Z,3.27
2023-05-25T10:27:14.641Z,4.50
2023-05-25T10:29:47.537Z,3.93
2023-05-25T10:32:16.617Z,3.77
2023-05-25T10:34:45.013Z,4.43
2023-05-25T10:37:16.108Z,3.97
2023-05-25T10:39:44.738Z,4.33
2023-05-25T10:42:13.388Z,4.40
2023-05-25T10:44:42.781Z,4.50
2023-05-25T10:47:11.394Z,4.07
2023-05-25T10:49:53.294Z,3.90
2023-05-25T10:52:23.145Z,3.97
2023-05-25T10:54:51.293Z,4.07
2023-05-25T10:57:20.421Z,4.47
2023-05-25T10:59:54.968Z,4.13
2023-05-25T11:02:26.149Z,4.70
2023-05-25T11:05:14.369Z,4.90
2023-05-25T11:07:55.560Z,4.57
2023-05-25T11:10:38.647Z,5.27
2023-05-25T11:13:21.751Z,5.80
2023-05-25T11:15:50.060Z,5.10
2023-05-25T11:18:18.701Z,5.33
2023-05-25T11:20:48.316Z,4.63
2023-05-25T11:23:28.546Z,5.10
2023-05-25T11:26:06.288Z,5.00
2023-05-25T11:28:34.531Z,4.93
2023-05-25T11:31:02.905Z,4.90
2023-05-25T11:33:31.267Z,4.83
2023-05-25T11:35:59.531Z,4.00
2023-05-25T11:38:31.228Z,4.23
2023-05-25T11:40:59.450Z,4.00
2023-05-25T11:43:28.132Z,4.17
2023-05-25T11:45:57.717Z,4.63
2023-05-25T11:48:26.397Z,4.33
2023-05-25T11:51:05.753Z,3.40
2023-05-25T11:53:35.786Z,3.80
2023-05-25T11:56:08.311Z,3.70
2023-05-25T11:58:37.024Z,3.57
2023-05-25T12:01:14.836Z,3.60
2023-05-25T12:03:43.195Z,3.90
2023-05-25T12:06:12.553Z,3.50
2023-05-25T12:08:42.109Z,3.70
2023-05-25T12:11:10.882Z,3.73
2023-05-25T12:13:42.330Z,3.07
2023-05-25T12:16:10.507Z,3.00
2023-05-25T12:18:38.750Z,3.23
2023-05-25T12:21:08.316Z,2.97
2023-05-25T12:23:37.031Z,3.30
2023-05-25T12:26:13.796Z,3.20
2023-05-25T12:28:42.264Z,3.50
2023-05-25T12:31:25.445Z,3.30
2023-05-25T12:34:06.745Z,2.73
2023-05-25T12:36:38.454Z,3.33
2023-05-25T12:39:06.747Z,3.03
2023-05-25T12:41:45.596Z,3.03
2023-05-25T12:44:28.752Z,2.37
2023-05-25T12:46:57.360Z,2.10
2023-05-25T12:49:35.878Z,2.20
2023-05-25T12:52:04.726Z,2.50
2023-05-25T12:54:36.846Z,2.10
2023-05-25T12:57:07.868Z,2.33
2023-05-25T12:59:36.921Z,2.20
2023-05-25T13:02:06.514Z,2.20
2023-05-25T13:04:34.990Z,2.43
2023-05-25T13:07:03.605Z,2.50
2023-05-25T13:09:32.709Z,2.57
2023-05-25T13:12:02.160Z,2.27
2023-05-25T13:14:31.798Z,2.30
2023-05-25T13:17:00.032Z,2.60
2023-05-25T13:19:28.352Z,2.50
2023-05-25T13:21:56.655Z,2.77
2023-05-25T13:24:25.236Z,3.10
2023-05-25T13:26:53.538Z,3.67
2023-05-25T13:29:21.752Z,2.83
2023-05-25T13:31:51.373Z,2.67
2023-05-25T13:34:19.659Z,3.17
2023-05-25T13:36:48.619Z,3.05
2023-05-25T13:39:17.037Z,2.80
2023-05-25T13:41:46.245Z,2.90
2023-05-25T13:44:17.224Z,2.83
2023-05-25T13:46:45.917Z,3.10
2023-05-25T13:49:16.408Z,3.67
2023-05-25T13:51:44.643Z,3.07
2023-05-25T13:54:13.621Z,3.40
2023-05-25T13:56:42.821Z,3.30
2023-05-25T13:59:11.325Z,2.90
2023-05-25T14:01:39.626Z,2.80
2023-05-25T14:04:08.211Z,3.63
2023-05-25T14:06:37.764Z,2.87
2023-05-25T14:09:06.109Z,3.33
2023-05-25T14:11:34.364Z,2.40
2023-05-25T14:14:02.582Z,2.95
2023-05-25T14:16:31.067Z,2.92
2023-05-25T14:18:59.368Z,3.43
2023-05-25T14:21:27.599Z,3.40
2023-05-25T14:23:57.087Z,3.00
2023-05-25T14:26:26.714Z,3.10
2023-05-25T14:28:55.403Z,3.33
2023-05-25T14:31:23.659Z,3.60
2023-05-25T14:33:51.915Z,3.33
2023-05-25T14:36:20.117Z,3.50
2023-05-25T14:38:48.377Z,3.50
2023-05-25T14:41:17.960Z,3.60
2023-05-25T14:43:46.219Z,3.40
2023-05-25T14:46:14.524Z,3.28
2023-05-25T14:48:42.775Z,3.78
2023-05-25T14:51:11.045Z,3.40
2023-05-25T14:53:39.234Z,3.63
2023-05-25T14:56:09.001Z,3.55
2023-05-25T14:58:39.966Z,3.70
2023-05-25T15:01:08.216Z,3.97
2023-05-25T15:03:36.581Z,4.30
2023-05-25T15:06:04.875Z,4.30
2023-05-25T15:08:33.079Z,4.05
2023-05-25T15:11:01.284Z,4.40
2023-05-25T15:13:29.498Z,4.43
2023-05-25T15:15:59.585Z,4.30
2023-05-25T15:18:27.879Z,3.93
2023-05-25T15:20:58.005Z,4.00
2023-05-25T15:23:26.285Z,4.47
2023-05-25T15:25:54.474Z,4.37
2023-05-25T15:28:22.647Z,4.47
2023-05-25T15:30:50.969Z,4.20
2023-05-25T15:33:21.205Z,4.03
2023-05-25T15:35:49.737Z,4.65
2023-05-25T15:38:17.868Z,4.03
2023-05-25T15:40:46.125Z,4.53
2023-05-25T15:43:14.312Z,4.23
2023-05-25T15:45:42.892Z,4.57
2023-05-25T15:48:11.273Z,3.87
2023-05-25T15:50:40.821Z,4.50
2023-05-25T15:53:09.760Z,3.87
2023-05-25T15:55:37.958Z,4.70
2023-05-25T15:58:06.186Z,4.60
2023-05-25T16:00:34.413Z,4.50
2023-05-25T16:03:03.022Z,4.40
2023-05-25T16:05:31.432Z,4.77
2023-05-25T16:08:00.959Z,4.70
2023-05-25T16:10:29.194Z,3.97
2023-05-25T16:12:57.473Z,4.70
2023-05-25T16:15:25.867Z,4.93
2023-05-25T16:17:54.042Z,4.70
2023-05-25T16:20:22.315Z,4.77
2023-05-25T16:22:50.529Z,3.93
2023-05-25T16:25:20.154Z,4.37
2023-05-25T16:27:48.481Z,4.87
2023-05-25T16:30:16.752Z,4.80
2023-05-25T16:32:45.009Z,4.03
2023-05-25T16:35:13.379Z,3.93
2023-05-25T16:37:41.620Z,4.63
2023-05-25T16:40:10.563Z,4.50
2023-05-25T16:42:40.106Z,4.90
2023-05-25T16:45:08.888Z,4.63
2023-05-25T16:47:37.097Z,4.90
2023-05-25T16:50:05.914Z,4.87
2023-05-25T16:52:34.132Z,4.23
2023-05-25T16:55:02.550Z,4.97
2023-05-25T16:57:30.750Z,4.60
2023-05-25T17:00:00.298Z,4.37
2023-05-25T17:02:28.593Z,4.17
2023-05-25T17:04:56.848Z,4.97
2023-05-25T17:07:25.150Z,4.60
2023-05-25T17:09:53.372Z,4.83
2023-05-25T17:12:21.648Z,5.20
2023-05-25T17:14:49.849Z,5.07
2023-05-25T17:17:19.791Z,4.97
2023-05-25T17:19:47.973Z,4.27
2023-05-25T17:22:16.283Z,4.47
2023-05-25T17:24:44.529Z,4.33
2023-05-25T17:27:12.790Z,4.57
2023-05-25T17:29:41.755Z,4.53
2023-05-25T17:32:10.111Z,4.97
2023-05-25T17:34:39.852Z,4.53
2023-05-25T17:37:08.124Z,4.70
2023-05-25T17:39:36.597Z,4.80
2023-05-25T17:42:04.847Z,3.97
2023-05-25T17:44:33.052Z,4.23
2023-05-25T17:47:01.300Z,4.10
2023-05-25T17:49:29.634Z,4.73
2023-05-25T17:51:59.498Z,4.50
2023-05-25T17:54:27.977Z,4.00
2023-05-25T17:56:56.509Z,4.53
2023-05-25T17:59:24.750Z,4.47
2023-05-25T18:01:53.015Z,4.50
2023-05-25T18:04:21.344Z,5.13
2023-05-25T18:06:51.863Z,4.63
2023-05-25T18:09:21.476Z,4.70
2023-05-25T18:11:49.721Z,5.40
2023-05-25T18:14:17.982Z,5.23
2023-05-25T18:16:46.216Z,3.90
2023-05-25T18:19:16.564Z,4.60
2023-05-25T18:21:44.801Z,4.10
2023-05-25T18:24:13.182Z,4.80
2023-05-25T18:26:42.785Z,5.07
2023-05-25T18:29:11.045Z,4.90
2023-05-25T18:31:45.403Z,5.10
2023-05-25T18:34:13.796Z,5.30
2023-05-25T18:36:42.047Z,4.70
2023-05-25T18:39:10.405Z,5.13
2023-05-25T18:41:39.553Z,5.03
2023-05-25T18:44:09.160Z,5.30
2023-05-25T18:46:39.721Z,4.70
2023-05-25T18:49:07.977Z,5.13
2023-05-25T18:51:36.817Z,5.23
2023-05-25T18:54:05.200Z,5.40
2023-05-25T18:56:33.452Z,5.00
2023-05-25T18:59:01.647Z,5.03
2023-05-25T19:01:31.378Z,5.00
2023-05-25T19:03:59.683Z,4.83
2023-05-25T19:06:28.043Z,4.87
2023-05-25T19:08:56.372Z,5.10
2023-05-25T19:11:24.638Z,5.23
2023-05-25T19:13:52.821Z,5.30
2023-05-25T19:16:21.090Z,5.10
2023-05-25T19:18:50.738Z,4.50
2023-05-25T19:21:18.956Z,4.70
2023-05-25T19:23:47.160Z,5.83
2023-05-25T19:26:15.443Z,5.10
2023-05-25T19:28:43.663Z,5.00
2023-05-25T19:31:11.895Z,5.07
2023-05-25T19:33:40.182Z,4.37
2023-05-25T19:36:09.874Z,5.33
2023-05-25T19:38:41.873Z,5.60
2023-05-25T19:41:10.589Z,4.77
2023-05-25T19:43:38.886Z,4.83
2023-05-25T19:46:07.169Z,5.10
2023-05-25T19:48:35.509Z,4.80
2023-05-25T19:51:03.770Z,4.93
2023-05-25T19:53:33.380Z,4.67
2023-05-25T19:56:03.236Z,4.87
2023-05-25T19:58:31.474Z,4.33
2023-05-25T20:00:59.664Z,4.93
2023-05-25T20:03:27.995Z,5.23
2023-05-25T20:05:57.784Z,4.43
2023-05-25T20:08:27.226Z,5.17
2023-05-25T20:10:56.795Z,5.47
2023-05-25T20:13:25.298Z,5.17
2023-05-25T20:15:53.594Z,4.87
2023-05-25T20:18:23.771Z,4.57
2023-05-25T20:20:52.272Z,5.10
2023-05-25T20:23:20.911Z,4.30
2023-05-25T20:25:49.190Z,4.47
2023-05-25T20:28:19.583Z,4.50
2023-05-25T20:30:47.810Z,4.50
2023-05-25T20:33:16.117Z,4.40
2023-05-25T20:35:44.645Z,4.70
2023-05-25T20:38:13.045Z,4.67
2023-05-25T20:40:41.263Z,4.60
2023-05-25T20:43:09.495Z,5.13
2023-05-25T20:45:39.106Z,4.67
2023-05-25T20:48:07.464Z,4.87
2023-05-25T20:50:35.908Z,5.23
2023-05-25T20:53:04.173Z,4.90
2023-05-25T20:55:32.336Z,5.10
2023-05-25T20:58:01.017Z,5.00
2023-05-25T21:00:29.232Z,4.93
2023-05-25T21:02:58.905Z,5.10
2023-05-25T21:05:27.170Z,4.77
2023-05-25T21:07:55.465Z,4.83
2023-05-25T21:10:23.761Z,4.77
2023-05-25T21:12:51.973Z,4.80
2023-05-25T21:15:20.215Z,5.30
2023-05-25T21:17:48.469Z,4.03
2023-05-25T21:20:18.296Z,4.80
2023-05-25T21:22:46.996Z,5.13
2023-05-25T21:25:15.263Z,4.93
2023-05-25T21:27:43.467Z,4.87
2023-05-25T21:30:12.023Z,6.20
2023-05-25T21:32:40.293Z,4.87
2023-05-25T21:35:08.608Z,5.13
2023-05-25T21:37:38.254Z,5.53
2023-05-25T21:40:07.674Z,5.90
2023-05-25T21:42:35.902Z,4.87
2023-05-25T21:45:04.571Z,5.43
2023-05-25T21:47:32.873Z,5.97
2023-05-25T21:50:01.083Z,4.80
2023-05-25T21:52:29.421Z,5.07
2023-05-25T21:54:58.975Z,5.43
2023-05-25T21:57:27.197Z,5.07
2023-05-25T21:59:55.561Z,5.40
2023-05-25T22:02:23.810Z,5.27
2023-05-25T22:04:52.099Z,4.80
2023-05-25T22:07:20.362Z,4.67
2023-05-25T22:09:48.546Z,4.87
2023-05-25T22:12:18.168Z,4.50
2023-05-25T22:14:46.396Z,4.67
2023-05-25T22:17:15.267Z,4.80
2023-05-25T22:19:46.875Z,5.73
2023-05-25T22:22:17.713Z,5.20
2023-05-25T22:24:45.909Z,4.97
2023-05-25T22:27:14.146Z,5.17
2023-05-25T22:29:44.086Z,5.03
2023-05-25T22:32:12.322Z,5.63
2023-05-25T22:34:40.556Z,5.40
2023-05-25T22:37:08.704Z,5.43
2023-05-25T22:39:36.841Z,4.67
2023-05-25T22:42:05.197Z,5.37
2023-05-25T22:44:34.571Z,4.50
2023-05-25T22:47:04.118Z,5.20
2023-05-25T22:49:32.440Z,5.10
2023-05-25T22:52:00.736Z,5.40
2023-05-25T22:54:28.979Z,4.77
2023-05-25T22:56:57.337Z,5.50
2023-05-25T22:59:25.513Z,4.93
2023-05-25T23:01:53.786Z,5.03
2023-05-25T23:04:23.506Z,5.13
2023-05-25T23:06:51.733Z,4.60
2023-05-25T23:09:19.948Z,5.37
2023-05-25T23:11:48.155Z,5.23
2023-05-25T23:14:16.419Z,4.83
2023-05-25T23:16:48.426Z,4.90
2023-05-25T23:19:17.941Z,5.17
2023-05-25T23:21:48.173Z,4.33
2023-05-25T23:24:16.403Z,5.03
2023-05-25T23:26:44.645Z,4.67
2023-05-25T23:29:12.925Z,3.90
2023-05-25T23:31:41.254Z,4.57
2023-05-25T23:34:09.509Z,4.47
2023-05-25T23:36:37.744Z,4.90
2023-05-25T23:39:07.749Z,4.77
2023-05-25T23:41:35.978Z,4.90
2023-05-25T23:44:04.175Z,4.73
2023-05-25T23:46:32.665Z,4.27
2023-05-25T23:49:01.201Z,4.40
2023-05-25T23:51:29.392Z,4.60
2023-05-25T23:53:57.662Z,5.27
2023-05-25T23:56:28.170Z,5.27
2023-05-25T23:58:56.891Z,4.70
